Time;durP1;ratioP1;P1;durP2;ratioP2;P2;SDS_P1;SDS_P2;PMS_P1;PMS_P2;Temp;Humidity;BMP_temperature;BMP_pressure;BME280_temperature;BME280_humidity;BME280_pressure;Samples;Min_cycle;Max_cycle;Signal;HPM_P1;HPM_P2
2022/05/14 00:00:31;;;;;;;4.47;1.52;;;;;;;8.24;96.46;100951.94;4916908;29;20032;-73
2022/05/14 00:02:56;;;;;;;6.30;1.70;;;;;;;8.18;96.10;100959.16;4916393;29;20087;-73
2022/05/14 00:05:24;;;;;;;3.42;1.52;;;;;;;8.10;96.40;100949.41;4897631;29;20032;-73
2022/05/14 00:07:51;;;;;;;5.10;2.28;;;;;;;8.18;96.85;100970.88;4909649;29;20024;-76
2022/05/14 00:10:17;;;;;;;5.88;2.30;;;;;;;8.05;96.47;100952.03;4902589;29;20108;-73
2022/05/14 00:15:27;;;;;;;8.23;1.80;;;;;;;8.00;96.85;100946.44;4906624;29;20067;-73
2022/05/14 00:17:54;;;;;;;10.02;3.00;;;;;;;7.96;96.59;100942.56;4872085;29;20360;-73
2022/05/14 00:20:23;;;;;;;5.45;1.85;;;;;;;7.93;96.55;100941.13;4873575;29;20095;-73
2022/05/14 00:22:52;;;;;;;9.20;2.38;;;;;;;7.95;96.89;100949.06;4904126;29;20036;-73
2022/05/14 00:25:35;;;;;;;6.85;2.53;;;;;;;7.81;96.79;100943.84;4870895;29;20041;-72
2022/05/14 00:28:21;;;;;;;8.07;2.40;;;;;;;7.70;97.22;100931.03;4899117;29;20019;-73
2022/05/14 00:30:50;;;;;;;9.05;1.80;;;;;;;7.67;96.96;100942.41;4918904;29;20043;-72
2022/05/14 00:33:16;;;;;;;5.72;2.05;;;;;;;7.67;97.33;100943.22;4902126;29;20020;-72
2022/05/14 00:35:43;;;;;;;6.18;2.03;;;;;;;7.58;97.30;100941.91;4921975;29;20027;-72
2022/05/14 00:38:11;;;;;;;3.75;1.85;;;;;;;7.55;97.19;100944.25;4919853;29;20052;-74
2022/05/14 00:40:48;;;;;;;5.32;2.10;;;;;;;7.44;97.62;100933.09;4900161;29;20043;-72
2022/05/14 00:43:15;;;;;;;7.55;2.65;;;;;;;7.36;97.25;100938.06;4895433;29;20060;-74
2022/05/14 00:45:47;;;;;;;6.40;2.67;;;;;;;7.32;97.04;100943.16;4904872;29;20052;-72
2022/05/14 00:48:13;;;;;;;11.95;2.95;;;;;;;7.30;96.42;100959.69;4912029;29;20870;-72
2022/05/14 00:50:39;;;;;;;3.08;1.90;;;;;;;7.26;97.29;100955.78;4911189;29;20048;-72
2022/05/14 00:53:18;;;;;;;5.85;2.20;;;;;;;7.24;97.65;100948.91;4903642;29;20040;-73
2022/05/14 00:55:46;;;;;;;2.22;1.25;;;;;;;7.25;98.32;100950.56;4916068;29;20031;-74
2022/05/14 00:58:21;;;;;;;3.25;1.73;;;;;;;7.23;98.94;100949.94;4902239;29;20036;-74
2022/05/14 01:00:47;;;;;;;4.07;1.90;;;;;;;7.23;98.25;100955.38;4918997;29;20087;-73
2022/05/14 01:03:12;;;;;;;2.75;1.38;;;;;;;7.24;98.70;100951.63;4903228;29;20059;-74
2022/05/14 01:05:39;;;;;;;4.78;1.40;;;;;;;7.29;99.23;100954.50;4883082;29;20025;-73
2022/05/14 01:08:04;;;;;;;1.52;1.17;;;;;;;7.23;99.12;100948.09;4883887;29;20101;-73
2022/05/14 01:10:36;;;;;;;5.50;1.92;;;;;;;7.18;99.47;100953.38;4908098;29;20072;-73
2022/05/14 01:13:03;;;;;;;6.43;2.30;;;;;;;7.16;99.00;100953.59;4915377;29;20024;-73
2022/05/14 01:15:48;;;;;;;2.00;1.38;;;;;;;7.21;99.58;100954.81;4904375;29;20035;-73
2022/05/14 01:18:14;;;;;;;2.80;1.52;;;;;;;7.18;99.45;100941.66;4915472;29;20028;-73
2022/05/14 01:20:39;;;;;;;2.28;1.33;;;;;;;7.18;99.39;100944.38;4915181;29;20038;-73
2022/05/14 01:23:21;;;;;;;2.63;1.35;;;;;;;7.21;99.95;100946.66;4916304;29;20103;-73
2022/05/14 01:26:29;;;;;;;2.30;1.20;;;;;;;7.07;100.00;100927.78;4899843;29;20514;-72
2022/05/14 01:28:57;;;;;;;2.47;1.45;;;;;;;7.19;100.00;100948.78;4902776;29;20371;-74
2022/05/14 01:31:24;;;;;;;1.05;0.88;;;;;;;7.18;99.93;100949.81;4912234;29;20031;-71
2022/05/14 01:33:50;;;;;;;2.63;1.48;;;;;;;7.11;99.73;100939.03;4917615;29;20028;-73
2022/05/14 01:36:15;;;;;;;2.50;1.00;;;;;;;7.26;99.98;100957.69;4886516;29;20092;-74
2022/05/14 01:38:41;;;;;;;5.10;1.65;;;;;;;7.36;100.00;100947.06;4887182;29;20051;-75
2022/05/14 01:41:06;;;;;;;5.28;1.80;;;;;;;7.50;100.00;100943.09;4901931;29;20064;-73
2022/05/14 01:43:32;;;;;;;13.25;2.97;;;;;;;7.68;100.00;100944.03;4884919;29;20032;-72
2022/05/14 01:45:59;;;;;;;7.00;2.15;;;;;;;7.73;100.00;100941.47;4919053;29;20079;-73
2022/05/14 01:48:24;;;;;;;3.95;2.10;;;;;;;7.82;100.00;100936.50;4903674;29;20032;-73
2022/05/14 01:50:50;;;;;;;5.45;2.30;;;;;;;7.96;100.00;100939.84;4901128;29;20032;-74
2022/05/14 01:53:19;;;;;;;2.47;1.70;;;;;;;7.94;100.00;100929.16;4870931;29;20027;-73
2022/05/14 01:55:44;;;;;;;9.02;2.25;;;;;;;8.08;100.00;100939.84;4889100;29;20043;-73
2022/05/14 02:00:59;;;;;;;10.27;2.33;;;;;;;8.03;99.10;100929.63;4908777;29;20088;-72
2022/05/14 02:03:24;;;;;;;11.20;2.50;;;;;;;8.06;99.21;100940.09;4909586;29;20064;-74
2022/05/14 02:05:50;;;;;;;7.93;2.05;;;;;;;7.99;99.21;100933.91;4905483;29;20028;-74
2022/05/14 02:08:15;;;;;;;7.63;2.65;;;;;;;8.00;99.76;100921.94;4890428;29;20047;-76
2022/05/14 02:10:41;;;;;;;7.18;2.10;;;;;;;8.05;100.00;100922.06;4903281;29;20048;-74
2022/05/14 02:13:06;;;;;;;5.68;2.10;;;;;;;8.10;99.63;100919.44;4885563;29;20056;-75
2022/05/14 02:15:32;;;;;;;2.22;1.20;;;;;;;8.13;99.59;100910.81;4874723;29;20028;-74
2022/05/14 02:17:57;;;;;;;2.92;1.38;;;;;;;8.29;99.55;100922.06;4890044;29;20095;-73
2022/05/14 02:20:26;;;;;;;4.63;1.52;;;;;;;8.26;100.00;100914.34;4892216;29;20033;-75
2022/05/14 02:22:51;;;;;;;2.78;1.45;;;;;;;8.26;99.69;100911.63;4887766;29;20029;-74
2022/05/14 02:25:19;;;;;;;6.30;1.73;;;;;;;8.35;99.76;100918.38;4893007;29;20029;-74
2022/05/14 02:27:45;;;;;;;5.97;1.83;;;;;;;8.44;99.20;100933.34;4891239;29;20028;-74
2022/05/14 02:30:12;;;;;;;4.40;1.85;;;;;;;8.34;99.27;100914.00;4909865;29;20028;-75
2022/05/14 02:32:38;;;;;;;5.82;2.30;;;;;;;8.35;99.13;100923.81;4902949;29;20038;-74
2022/05/14 02:35:05;;;;;;;6.70;2.17;;;;;;;8.29;98.68;100919.31;4898852;29;20028;-75
2022/05/14 02:37:30;;;;;;;10.20;3.00;;;;;;;8.32;98.27;100921.56;4915301;29;20144;-74
2022/05/14 02:39:56;;;;;;;10.23;3.67;;;;;;;8.27;98.03;100929.66;4890627;29;20071;-72
2022/05/14 02:42:23;;;;;;;6.45;3.03;;;;;;;8.11;96.98;100912.94;4890879;29;20024;-73
2022/05/14 02:44:48;;;;;;;4.80;2.08;;;;;;;8.12;97.35;100922.78;4891604;29;20059;-74
2022/05/14 02:47:17;;;;;;;5.15;2.03;;;;;;;8.08;97.03;100924.31;4905340;29;20491;-74
2022/05/14 02:49:42;;;;;;;3.92;2.20;;;;;;;8.00;96.41;100930.09;4903572;29;20484;-73
2022/05/14 02:52:08;;;;;;;3.80;1.92;;;;;;;7.88;95.79;100912.94;4903635;29;20075;-73
2022/05/14 02:54:34;;;;;;;4.53;2.15;;;;;;;7.94;96.83;100915.53;4900577;29;20039;-74
2022/05/14 02:57:00;;;;;;;10.75;2.95;;;;;;;7.88;95.91;100918.41;4908054;29;20531;-75
2022/05/14 02:59:28;;;;;;;7.93;3.33;;;;;;;7.78;95.77;100903.47;4869188;29;20063;-73
2022/05/14 03:01:56;;;;;;;9.20;3.38;;;;;;;7.86;95.39;100919.44;4899372;29;20059;-72
2022/05/14 03:04:26;;;;;;;6.85;2.45;;;;;;;7.83;95.07;100919.94;4909198;29;20032;-73
2022/05/14 03:06:53;;;;;;;9.13;3.10;;;;;;;7.70;95.93;100901.09;4905244;29;20031;-74
2022/05/14 03:09:19;;;;;;;9.88;2.83;;;;;;;7.82;96.01;100917.44;4904973;29;20111;-74
2022/05/14 03:11:54;;;;;;;5.90;2.75;;;;;;;7.64;95.56;100900.13;4893121;29;20079;-73
2022/05/14 03:14:20;;;;;;;11.60;3.15;;;;;;;7.70;95.59;100914.72;4898692;29;20385;-73
2022/05/14 03:16:45;;;;;;;5.38;2.40;;;;;;;7.66;95.06;100913.50;4890417;29;20035;-73
2022/05/14 03:19:12;;;;;;;9.93;2.65;;;;;;;7.59;95.32;100901.91;4885591;29;20028;-73
2022/05/14 03:21:38;;;;;;;9.45;2.60;;;;;;;7.68;94.79;100916.81;4912402;29;20108;-73
2022/05/14 03:24:04;;;;;;;7.20;2.22;;;;;;;7.66;95.24;100913.50;4914840;29;20032;-74
2022/05/14 03:26:30;;;;;;;5.75;2.85;;;;;;;7.62;95.63;100907.72;4898809;29;20032;-72
2022/05/14 03:28:56;;;;;;;7.63;2.55;;;;;;;7.67;94.97;100909.75;4914965;29;20458;-73
2022/05/14 03:31:23;;;;;;;5.65;2.53;;;;;;;7.68;96.36;100908.66;4883236;29;20083;-73
2022/05/14 03:33:48;;;;;;;6.10;2.53;;;;;;;7.63;95.95;100903.09;4900617;29;20440;-75
2022/05/14 03:36:14;;;;;;;14.80;2.92;;;;;;;7.55;95.84;100895.25;4905504;29;20032;-73
2022/05/14 03:38:39;;;;;;;6.75;2.22;;;;;;;7.63;96.04;100908.53;4907144;29;20063;-73
2022/05/14 03:41:05;;;;;;;8.50;2.78;;;;;;;7.61;96.01;100902.53;4906229;29;20482;-74
2022/05/14 03:43:34;;;;;;;7.75;2.45;;;;;;;7.65;96.25;100914.56;4900983;29;20032;-73
2022/05/14 03:45:59;;;;;;;7.55;3.50;;;;;;;7.67;96.10;100912.47;4903466;29;20032;-74
2022/05/14 03:48:32;;;;;;;9.32;2.50;;;;;;;7.66;95.91;100908.06;4887353;29;20034;-75
2022/05/14 03:50:58;;;;;;;9.73;3.05;;;;;;;7.74;95.83;100910.47;4895055;29;20034;-74
2022/05/14 03:53:23;;;;;;;8.25;2.90;;;;;;;7.68;95.43;100895.03;4899699;29;20125;-74
2022/05/14 03:55:49;;;;;;;12.77;2.78;;;;;;;7.73;95.77;100902.53;4903493;29;20036;-75
2022/05/14 03:58:14;;;;;;;10.07;3.85;;;;;;;7.73;95.07;100897.09;4888116;29;20036;-72
2022/05/14 04:00:40;;;;;;;14.00;4.47;;;;;;;7.75;94.56;100903.94;4888113;29;20352;-74
2022/05/14 04:03:05;;;;;;;12.93;3.10;;;;;;;7.75;94.22;100916.72;4880615;29;20059;-77
2022/05/14 04:05:31;;;;;;;10.05;3.13;;;;;;;7.68;94.42;100912.22;4890348;29;20482;-76
2022/05/14 04:07:56;;;;;;;11.18;2.97;;;;;;;7.73;94.66;100916.97;4882805;29;20040;-76
2022/05/14 04:10:22;;;;;;;8.02;3.08;;;;;;;7.72;94.91;100918.00;4909414;29;20032;-75
2022/05/14 04:12:47;;;;;;;18.38;4.57;;;;;;;7.75;95.34;100917.53;4875316;29;20475;-77
2022/05/14 04:15:14;;;;;;;15.38;3.50;;;;;;;7.65;95.18;100887.34;4901433;29;20028;-77
2022/05/14 04:25:30;;;;;;;11.48;2.75;;;;;;;7.91;95.44;100917.91;4926591;29;20032;-77
2022/05/14 04:28:21;;;;;;;17.55;3.80;;;;;;;7.92;95.19;100931.28;4915380;29;20032;-78
2022/05/14 04:30:48;;;;;;;9.93;2.63;;;;;;;7.77;95.25;100903.69;4911145;29;20039;-78
2022/05/14 04:33:15;;;;;;;8.30;2.20;;;;;;;7.81;95.67;100907.59;4925918;29;20028;-78
2022/05/14 04:36:44;;;;;;;7.32;2.60;;;;;;;7.91;95.74;100932.34;4912255;29;20475;-76
2022/05/14 04:39:56;;;;;;;6.90;2.70;;;;;;;7.88;97.05;100932.00;4912136;29;20606;-76
2022/05/14 04:42:24;;;;;;;13.30;3.28;;;;;;;7.69;97.27;100899.44;4830953;29;20515;-77
2022/05/14 04:44:50;;;;;;;7.82;2.60;;;;;;;7.73;97.27;100908.78;4869088;29;20040;-77
2022/05/14 04:47:16;;;;;;;12.50;2.72;;;;;;;7.84;97.22;100921.59;4925023;29;20040;-77
2022/05/14 04:49:51;;;;;;;12.77;3.13;;;;;;;7.92;97.16;100925.03;4892123;29;20025;-77
2022/05/14 04:52:16;;;;;;;6.28;2.67;;;;;;;7.95;97.39;100928.09;4893339;29;20096;-78
2022/05/14 04:54:43;;;;;;;12.60;2.67;;;;;;;7.93;97.08;100913.06;4908323;29;20162;-77
2022/05/14 04:57:08;;;;;;;8.82;2.75;;;;;;;7.84;97.28;100901.69;4910203;29;20057;-78
2022/05/14 04:59:36;;;;;;;5.28;2.60;;;;;;;7.99;97.45;100925.75;4879524;29;20101;-78
2022/05/14 05:04:47;;;;;;;14.15;3.63;;;;;;;7.96;96.51;100923.50;4909570;29;20112;-76
2022/05/14 05:07:12;;;;;;;6.18;2.67;;;;;;;7.90;96.83;100908.94;4904388;29;20104;-76
2022/05/14 05:09:38;;;;;;;7.38;3.03;;;;;;;7.89;97.02;100911.91;4863999;29;20028;-77
2022/05/14 05:12:05;;;;;;;14.93;2.55;;;;;;;7.91;96.73;100915.19;4906701;29;20043;-76
2022/05/14 05:14:31;;;;;;;7.22;2.65;;;;;;;7.91;97.47;100920.66;4902579;29;20021;-76
2022/05/14 05:16:57;;;;;;;14.18;3.55;;;;;;;7.85;96.82;100928.69;4917382;29;20040;-77
2022/05/14 05:19:23;;;;;;;8.75;3.45;;;;;;;7.79;96.06;100917.91;4899420;29;20036;-77
2022/05/14 05:21:49;;;;;;;10.93;3.58;;;;;;;7.66;96.25;100913.50;4883172;29;20020;-76
2022/05/14 05:24:15;;;;;;;8.75;3.22;;;;;;;7.63;95.99;100930.31;4876572;29;20059;-77
2022/05/14 05:26:43;;;;;;;9.02;3.40;;;;;;;7.41;96.08;100911.00;4905635;29;20035;-77
2022/05/14 05:29:09;;;;;;;9.55;3.92;;;;;;;7.49;96.48;100930.53;4908585;29;20096;-77
2022/05/14 05:31:44;;;;;;;14.38;3.47;;;;;;;7.38;97.25;100923.16;4913130;29;20059;-79
2022/05/14 05:34:17;;;;;;;12.13;3.85;;;;;;;7.29;96.41;100921.84;4910440;29;20032;-79
2022/05/14 05:36:53;;;;;;;;;;;;;;;;;;;;;
2022/05/14 05:39:19;;;;;;;8.25;3.50;;;;;;;7.16;97.38;100925.59;4913285;29;20123;-77
2022/05/14 05:41:44;;;;;;;10.70;3.15;;;;;;;7.17;98.61;100932.69;4913972;29;20086;-76
2022/05/14 05:44:12;;;;;;;4.22;2.50;;;;;;;7.16;98.61;100931.03;4906549;29;20495;-78
2022/05/14 05:46:38;;;;;;;5.72;2.30;;;;;;;7.09;98.71;100913.97;4903835;29;20039;-76
2022/05/14 05:49:05;;;;;;;9.65;3.47;;;;;;;7.08;99.02;100915.00;4899410;29;20491;-77
2022/05/14 05:51:31;;;;;;;14.90;3.25;;;;;;;7.28;100.00;100944.66;4895926;29;20171;-78
2022/05/14 05:56:47;;;;;;;10.00;3.45;;;;;;;7.38;99.71;100928.59;4919406;29;20051;-78
2022/05/14 05:59:16;;;;;;;9.82;3.30;;;;;;;7.62;100.00;100947.72;4898177;29;20543;-77
2022/05/14 06:01:42;;;;;;;7.90;2.85;;;;;;;7.81;99.41;100953.91;4905941;29;20020;-79
2022/05/14 06:04:08;;;;;;;6.47;3.22;;;;;;;7.88;98.19;100937.47;4911403;29;20387;-78
2022/05/14 06:06:34;;;;;;;8.77;3.47;;;;;;;8.12;97.62;100960.91;4907076;29;20028;-78
2022/05/14 06:09:00;;;;;;;10.02;3.60;;;;;;;8.25;96.54;100956.28;4906684;29;20123;-76
2022/05/14 06:11:26;;;;;;;8.50;3.35;;;;;;;8.36;96.03;100955.47;4892775;29;20032;-79
2022/05/14 06:13:52;;;;;;;17.13;4.40;;;;;;;8.58;95.66;100963.06;4876316;29;20036;-76
2022/05/14 06:16:17;;;;;;;11.68;3.20;;;;;;;8.64;95.13;100956.63;4915546;29;20028;-76
2022/05/14 06:18:44;;;;;;;8.88;4.05;;;;;;;8.74;94.62;100956.84;4889060;29;20032;-76
2022/05/14 06:21:10;;;;;;;10.60;3.38;;;;;;;8.87;94.38;100967.47;4892414;29;20071;-77
2022/05/14 06:23:36;;;;;;;9.40;3.83;;;;;;;9.05;93.77;100973.84;4898292;29;20044;-77
2022/05/14 06:26:02;;;;;;;12.65;4.00;;;;;;;9.24;93.69;100972.59;4886657;29;20036;-77
2022/05/14 06:28:30;;;;;;;7.93;3.08;;;;;;;9.34;92.69;100961.03;4885960;29;20020;-78
2022/05/14 06:30:57;;;;;;;12.95;3.33;;;;;;;9.48;91.56;100967.03;4873000;29;20029;-76
2022/05/14 06:33:23;;;;;;;15.85;3.28;;;;;;;9.60;91.47;100980.59;4880213;29;20123;-76
2022/05/14 06:35:51;;;;;;;3.20;2.20;;;;;;;9.53;91.95;100953.44;4884888;29;20059;-77
2022/05/14 06:38:19;;;;;;;4.65;2.50;;;;;;;9.69;92.04;100975.56;4889726;29;20084;-75
2022/05/14 06:40:48;;;;;;;9.80;2.88;;;;;;;9.84;92.01;100986.78;4913813;29;20157;-77
2022/05/14 06:43:16;;;;;;;8.30;2.33;;;;;;;9.99;92.42;100982.59;4890339;29;20054;-75
2022/05/14 06:46:16;;;;;;;9.02;3.08;;;;;;;10.07;92.16;100984.94;4903165;29;20055;-75
2022/05/14 06:49:23;;;;;;;6.88;2.70;;;;;;;10.18;91.54;100991.38;4913885;29;20028;-76
2022/05/14 06:51:52;;;;;;;11.77;2.92;;;;;;;10.17;91.49;100985.09;4896610;29;20100;-75
2022/05/14 06:54:23;;;;;;;9.85;3.00;;;;;;;10.21;90.44;100986.25;4888160;29;20043;-76
2022/05/14 06:56:49;;;;;;;9.23;3.38;;;;;;;10.28;89.72;100981.44;4903450;29;20017;-77
2022/05/14 06:59:16;;;;;;;5.47;2.20;;;;;;;10.40;89.26;100983.28;4912504;29;20052;-76
2022/05/14 07:01:44;;;;;;;6.43;2.50;;;;;;;10.59;89.63;100995.59;4912883;29;20058;-76
2022/05/14 07:07:01;;;;;;;11.20;3.25;;;;;;;10.89;88.34;101002.53;4909988;29;20043;-75
2022/05/14 07:09:30;;;;;;;16.10;3.15;;;;;;;11.07;87.88;100997.81;4903111;29;20032;-74
2022/05/14 07:12:14;;;;;;;;;;;;;;;;;;;;;
2022/05/14 07:14:40;;;;;;;10.60;2.63;;;;;;;11.37;87.04;100985.59;4914884;29;20555;-75
2022/05/14 07:17:08;;;;;;;9.15;2.90;;;;;;;11.48;87.46;100992.84;4897562;29;20104;-73
2022/05/14 07:19:34;;;;;;;14.68;2.83;;;;;;;11.62;85.35;100988.59;4917159;29;20047;-73
2022/05/14 07:22:07;;;;;;;6.85;2.75;;;;;;;11.69;85.04;100994.66;4915565;29;20375;-73
2022/05/14 07:24:33;;;;;;;8.15;2.42;;;;;;;11.80;84.56;100984.63;4897484;29;20028;-75
2022/05/14 07:27:03;;;;;;;11.13;3.42;;;;;;;12.18;83.28;101017.59;4897715;29;20107;-73
2022/05/14 07:29:34;;;;;;;8.00;2.53;;;;;;;12.42;83.38;101012.56;4899177;29;20059;-75
2022/05/14 07:31:59;;;;;;;5.53;1.88;;;;;;;12.72;83.48;101011.91;4881635;29;20035;-73
2022/05/14 07:34:25;;;;;;;8.32;2.92;;;;;;;12.95;82.47;101003.50;4902310;29;20032;-74
2022/05/14 07:37:04;;;;;;;12.75;2.90;;;;;;;13.16;83.25;101004.44;4878548;29;20073;-73
2022/05/14 07:39:36;;;;;;;4.65;1.85;;;;;;;13.40;83.35;101011.13;4906499;23;20053;-73
2022/05/14 07:42:06;;;;;;;9.02;2.17;;;;;;;13.58;83.39;101020.78;4907361;29;20073;-74
2022/05/14 07:44:36;;;;;;;10.93;2.90;;;;;;;13.55;81.66;101023.22;4917547;29;20032;-73
2022/05/14 07:47:03;;;;;;;8.02;2.65;;;;;;;13.35;82.33;101002.88;4921655;29;20044;-73
2022/05/14 07:49:29;;;;;;;9.48;3.20;;;;;;;13.52;81.35;101018.28;4877250;29;20028;-74
2022/05/14 07:51:55;;;;;;;11.98;2.90;;;;;;;13.67;81.25;101018.34;4904986;29;20028;-74
2022/05/14 07:54:22;;;;;;;15.45;2.67;;;;;;;13.89;80.77;101009.00;4889198;29;20036;-73
2022/05/14 07:56:58;;;;;;;;;;;;;;;;;;;;;
2022/05/14 07:59:37;;;;;;;;;;;;;;;;;;;;;
2022/05/14 08:09:43;;;;;;;12.10;2.83;;;;;;;16.31;73.46;101027.31;4905646;29;20078;-77
2022/05/14 08:12:43;;;;;;;15.70;3.05;;;;;;;16.26;69.75;101024.63;4902284;29;20498;-75
2022/05/14 08:19:09;;;;;;;13.32;2.65;;;;;;;15.50;70.37;101036.69;4812814;29;20045;-74
2022/05/14 08:24:38;;;;;;;13.68;2.75;;;;;;;15.56;70.78;101020.16;4895258;29;20653;-72
2022/05/14 08:27:11;;;;;;;15.52;2.88;;;;;;;15.68;70.77;101026.13;4886884;29;20101;-75
2022/05/14 08:29:37;;;;;;;18.33;3.47;;;;;;;15.78;68.70;100990.22;4902434;29;20025;-75
2022/05/14 08:32:09;;;;;;;11.77;3.28;;;;;;;16.45;70.09;101008.97;4892786;29;20024;-76
2022/05/14 08:35:05;;;;;;;16.02;2.58;;;;;;;17.06;66.27;101009.44;4898766;29;20036;-74
2022/05/14 08:37:31;;;;;;;14.23;2.08;;;;;;;17.96;67.47;101013.16;4905046;29;20036;-75
2022/05/14 08:39:56;;;;;;;15.70;2.78;;;;;;;18.40;65.68;101016.56;4884198;29;20672;-74
2022/05/14 08:42:22;;;;;;;5.43;1.80;;;;;;;18.70;68.05;101019.06;4899201;29;20031;-76
2022/05/14 08:44:49;;;;;;;14.02;2.10;;;;;;;18.69;62.89;101006.31;4905802;29;20056;-76
2022/05/14 08:47:36;;;;;;;21.25;4.22;;;;;;;18.42;63.44;101013.47;4916138;29;20032;-76
2022/05/14 08:50:12;;;;;;;10.20;2.28;;;;;;;18.29;61.83;100999.28;4917230;29;20031;-75
2022/05/14 08:52:43;;;;;;;12.60;2.75;;;;;;;18.47;61.77;101013.38;4893196;29;20027;-76
2022/05/14 08:55:17;;;;;;;7.22;1.90;;;;;;;19.02;65.21;101016.19;4903455;29;20036;-74
2022/05/14 08:57:57;;;;;;;14.00;2.67;;;;;;;19.67;60.45;101014.25;4900368;29;20043;-75
2022/05/14 09:00:23;;;;;;;12.15;2.40;;;;;;;19.89;55.87;101007.09;4926768;29;20038;-75
2022/05/14 09:02:51;;;;;;;12.55;2.72;;;;;;;19.91;58.72;101024.25;4886516;29;20141;-73
2022/05/14 09:05:34;;;;;;;11.65;2.55;;;;;;;19.81;57.55;101013.41;4906147;29;20028;-76
2022/05/14 09:08:03;;;;;;;7.78;2.28;;;;;;;19.48;59.22;101008.03;4901738;29;20057;-75
2022/05/14 09:10:32;;;;;;;9.23;2.10;;;;;;;19.42;62.21;101012.88;4912939;29;20091;-76
2022/05/14 09:13:16;;;;;;;14.68;2.88;;;;;;;19.33;58.30;101010.03;4901379;29;20034;-76
2022/05/14 09:16:02;;;;;;;13.27;2.50;;;;;;;19.13;60.69;101000.19;4907399;29;20023;-74
2022/05/14 09:18:31;;;;;;;13.40;2.17;;;;;;;19.20;56.87;101005.31;4920727;29;20024;-74
2022/05/14 09:21:01;;;;;;;11.13;2.30;;;;;;;18.66;57.77;101000.28;4902074;29;20028;-75
2022/05/14 09:23:47;;;;;;;11.98;2.38;;;;;;;18.48;59.52;101015.03;4908760;29;20040;-74
2022/05/14 09:26:23;;;;;;;8.25;1.60;;;;;;;18.59;61.24;101008.16;4901874;29;20043;-75
2022/05/14 09:28:52;;;;;;;12.93;3.47;;;;;;;18.84;58.90;101014.34;4918092;29;20032;-74
2022/05/14 09:31:27;;;;;;;14.68;2.55;;;;;;;18.91;60.00;101008.41;4907357;29;20645;-75
2022/05/14 09:34:03;;;;;;;14.38;2.38;;;;;;;18.98;59.47;101004.13;4900400;29;20033;-75
2022/05/14 09:36:30;;;;;;;8.25;2.38;;;;;;;19.15;59.75;101008.19;4908710;29;20029;-74
2022/05/14 09:39:06;;;;;;;11.43;2.20;;;;;;;19.42;58.89;101012.03;4901201;29;20498;-74
2022/05/14 09:41:47;;;;;;;9.05;2.00;;;;;;;19.76;58.00;101016.28;4914311;29;20036;-74
2022/05/14 09:44:22;;;;;;;6.25;2.17;;;;;;;20.37;59.34;101017.53;4898934;29;20538;-74
2022/05/14 09:46:49;;;;;;;5.57;1.70;;;;;;;23.04;60.64;101010.25;4900461;29;20028;-75
2022/05/14 09:49:22;;;;;;;8.20;2.00;;;;;;;26.72;49.52;101005.56;4911136;29;20495;-75
2022/05/14 09:52:01;;;;;;;13.25;2.45;;;;;;;28.66;41.96;101017.31;4898705;29;20024;-73
2022/05/14 09:54:29;;;;;;;7.88;2.15;;;;;;;26.23;38.40;101001.88;4899242;29;20048;-74
2022/05/14 09:57:19;;;;;;;6.05;1.77;;;;;;;24.03;45.37;101003.34;4907473;29;20093;-74
2022/05/14 10:00:08;;;;;;;5.32;1.80;;;;;;;22.59;50.91;101010.78;4901909;29;20024;-76
2022/05/14 10:02:50;;;;;;;7.18;1.92;;;;;;;21.55;48.58;100998.66;4911158;29;20032;-76
2022/05/14 10:05:40;;;;;;;6.85;1.83;;;;;;;21.29;50.64;101002.22;4886099;29;20051;-75
2022/05/14 10:08:36;;;;;;;6.70;1.80;;;;;;;22.59;54.57;101005.22;4898225;29;20075;-74
2022/05/14 10:11:05;;;;;;;9.93;2.35;;;;;;;26.87;44.42;101007.56;4892353;29;20115;-74
2022/05/14 10:14:02;;;;;;;6.50;1.77;;;;;;;33.29;41.06;101014.78;4907820;29;20492;-75
2022/05/14 10:16:41;;;;;;;5.70;1.73;;;;;;;35.76;26.91;101014.19;4872436;29;20048;-75
2022/05/14 10:19:31;;;;;;;15.20;2.83;;;;;;;37.51;27.52;101016.63;4893748;29;20028;-76
2022/05/14 10:22:02;;;;;;;6.22;1.83;;;;;;;36.91;26.14;101014.50;4899573;29;20028;-75
2022/05/14 10:27:49;;;;;;;;;;;;;;;30.75;34.00;101012.38;4912290;29;20039;-76
2022/05/14 10:30:49;;;;;;;6.75;1.55;;;;;;;30.85;42.16;101005.16;4910763;29;19911;-74
2022/05/14 10:33:24;;;;;;;2.90;1.40;;;;;;;33.39;38.33;101008.28;4856132;29;20040;-74
2022/05/14 10:36:08;;;;;;;7.28;1.63;;;;;;;31.96;33.46;101007.00;4913159;29;20088;-73
2022/05/14 10:38:39;;;;;;;;;;;;;;;29.53;34.40;101000.53;4913127;29;20134;-74
2022/05/14 10:41:08;;;;;;;8.38;2.03;;;;;;;30.89;31.95;100993.91;4919670;29;19965;-74
2022/05/14 10:44:17;;;;;;;8.18;2.05;;;;;;;30.82;29.42;100994.66;4912545;29;20024;-76
2022/05/14 10:47:00;;;;;;;7.28;1.92;;;;;;;31.12;29.90;100991.66;4898473;29;20037;-76
2022/05/14 10:49:57;;;;;;;8.82;1.80;;;;;;;34.21;28.29;100998.56;4939922;23;20360;-75
2022/05/14 10:52:23;;;;;;;5.60;2.20;;;;;;;33.75;24.93;101005.34;4907426;29;20032;-78
2022/05/14 10:54:49;;;;;;;7.57;1.80;;;;;;;35.23;27.76;101007.88;4884305;29;20083;-75
2022/05/14 10:57:15;;;;;;;5.93;1.77;;;;;;;39.44;21.12;101010.31;4916313;29;20028;-73
2022/05/14 10:59:53;;;;;;;4.95;1.73;;;;;;;42.40;19.09;101005.78;4900915;29;20052;-74
2022/05/14 11:02:28;;;;;;;8.75;2.38;;;;;;;43.71;14.25;101007.44;4906925;29;20084;-76
2022/05/14 11:04:54;;;;;;;6.57;2.10;;;;;;;44.33;13.18;101006.06;4910010;29;20024;-75
2022/05/14 11:07:39;;;;;;;9.23;1.85;;;;;;;44.77;17.06;100999.72;4894419;29;20028;-74
2022/05/14 11:10:35;;;;;;;4.70;1.35;;;;;;;46.38;16.01;100990.47;4902089;29;20032;-74
2022/05/14 11:13:15;;;;;;;4.57;1.80;;;;;;;45.11;16.23;100993.81;4909535;29;20080;-75
2022/05/14 11:15:43;;;;;;;6.47;1.45;;;;;;;42.77;15.55;100985.72;4912411;29;20095;-76
2022/05/14 11:18:14;;;;;;;9.95;2.30;;;;;;;38.56;16.06;100977.97;4901261;29;20048;-74
2022/05/14 11:20:54;;;;;;;5.90;1.58;;;;;;;34.66;20.75;100965.81;4913231;29;20039;-74
2022/05/14 11:23:20;;;;;;;5.72;1.50;;;;;;;35.63;21.44;100968.44;4926821;29;20035;-75
2022/05/14 11:25:45;;;;;;;3.70;1.30;;;;;;;37.65;18.97;100953.56;4911882;29;20040;-76
2022/05/14 11:28:30;;;;;;;6.22;1.70;;;;;;;39.43;16.50;100968.66;4882106;29;20403;-76
2022/05/14 11:31:10;;;;;;;5.13;1.58;;;;;;;42.12;14.96;100945.34;4905873;29;20028;-75
2022/05/14 11:33:37;;;;;;;5.45;1.38;;;;;;;44.79;13.64;100950.19;4892830;29;20020;-76
2022/05/14 11:36:16;;;;;;;4.13;1.70;;;;;;;47.16;11.01;100963.81;4894218;29;20491;-76
2022/05/14 11:38:45;;;;;;;8.07;1.52;;;;;;;47.64;9.74;100960.31;4900897;29;20032;-75
2022/05/14 11:41:13;;;;;;;7.05;1.83;;;;;;;47.32;9.30;100954.47;4912915;29;20029;-74
2022/05/14 11:43:51;;;;;;;3.53;1.30;;;;;;;47.02;10.23;100957.63;4904181;29;20111;-76
2022/05/14 11:46:33;;;;;;;6.50;1.48;;;;;;;48.58;9.18;100962.75;4893904;29;20032;-74
2022/05/14 11:49:30;;;;;;;4.72;1.17;;;;;;;49.05;9.21;100965.25;4895924;29;20056;-74
2022/05/14 11:52:37;;;;;;;3.58;1.23;;;;;;;50.68;7.64;100960.59;4908073;29;20036;-75
2022/05/14 11:55:10;;;;;;;8.23;1.70;;;;;;;47.54;8.76;100953.13;4855177;29;20040;-73
2022/05/14 11:57:49;;;;;;;7.90;1.98;;;;;;;45.58;9.60;100940.13;4906893;29;20035;-76
2022/05/14 12:00:21;;;;;;;5.80;1.40;;;;;;;45.22;9.71;100913.25;4912085;29;20039;-76
2022/05/14 12:02:47;;;;;;;4.97;1.50;;;;;;;47.01;9.84;100935.78;4907073;29;20116;-77
2022/05/14 12:05:19;;;;;;;6.40;2.20;;;;;;;47.23;8.96;100940.19;4904120;29;20108;-74
2022/05/14 12:08:10;;;;;;;2.63;1.23;;;;;;;48.38;8.99;100935.50;4901988;29;20475;-77
2022/05/14 12:11:00;;;;;;;5.20;1.67;;;;;;;47.70;8.60;100931.38;4901232;29;20036;-75
2022/05/14 12:13:59;;;;;;;4.10;1.27;;;;;;;48.34;8.08;100926.25;4898744;29;20033;-77
2022/05/14 12:16:57;;;;;;;6.65;1.33;;;;;;;50.29;7.86;100923.72;4902510;29;20035;-78
2022/05/14 12:19:29;;;;;;;4.85;1.70;;;;;;;51.82;6.48;100931.41;4863975;29;20064;-75
2022/05/14 12:22:05;;;;;;;3.17;1.57;;;;;;;50.65;7.16;100915.13;4914468;29;20049;-76
2022/05/14 12:24:38;;;;;;;7.80;1.60;;;;;;;49.55;7.08;100906.47;4908166;29;20043;-76
2022/05/14 12:27:15;;;;;;;4.63;1.38;;;;;;;48.33;7.86;100907.25;4892469;29;20037;-77
2022/05/14 12:29:55;;;;;;;5.90;1.73;;;;;;;48.82;8.63;100907.19;4900241;29;20051;-77
2022/05/14 12:35:58;;;;;;;;;;;;;;;;;;;;;
2022/05/14 12:38:36;;;;;;;5.13;1.83;;;;;;;49.26;6.59;100884.56;4923531;29;20139;-79